»·PEaware :: N878FA KLGB-KMYF

N878FA :: KLGB-KMYF

FLIGHT INFORMATION

Flight Status: Arrived
Operator: Privately registered:
United States
More flights under this callsign
Pilot: D V. (24879)
Aircraft: CESSNA 172 SKYHAWK
(C172)
More flights by this aircraft type
Origin: KLGB Long Beach
United States
Destination: KMYF Montgomery
United States
More flights between these airports :: More routes between these airports
Route:
File this flight plan on PilotEdge
Remarks:
Altitude:
(Current/Filed)
2,500ft
Speed:
(Current/Filed)
95kts
Departed: 23-Aug-20 04:00 PM
Arrived: 23-Aug-20 05:46 PM
Distance/Time
Traveled:
79nm/1:46
Distance/Time
To Go:
Arrived

Flight Plot

Page will automatically refresh every two minutes.


Map Options




Map Legend


Flown Route
Filed Route
Departure Airport
Arrival Airport
Navaid (VOR, NDB)
Fix

Horizontal Profiles

Position Reports

Time Latitude Longitude Heading Altitude Ground
Speed
23-Aug-20 15:35 33.812096 -118.149126 90 37ft 0kts
23-Aug-20 15:36 33.812095 -118.149060 90 37ft 0kts
23-Aug-20 15:37 33.812095 -118.148994 90 37ft 0kts
23-Aug-20 15:38 33.812094 -118.148936 90 37ft 0kts
23-Aug-20 15:39 33.812094 -118.148936 90 37ft 0kts
23-Aug-20 15:40 33.812094 -118.148936 90 37ft 0kts
23-Aug-20 15:41 33.812094 -118.148936 90 37ft 0kts
23-Aug-20 15:42 33.812094 -118.148936 90 37ft 0kts
23-Aug-20 15:43 33.812094 -118.148936 90 37ft 0kts
23-Aug-20 15:44 33.812094 -118.148936 90 37ft 0kts
23-Aug-20 15:45 33.812094 -118.148936 90 37ft 0kts
23-Aug-20 15:46 33.812094 -118.148936 90 37ft 0kts
23-Aug-20 15:47 33.812094 -118.148936 90 37ft 0kts
23-Aug-20 15:48 33.812094 -118.148936 90 37ft 0kts
23-Aug-20 15:49 33.812094 -118.148936 90 37ft 0kts
23-Aug-20 15:50 33.812379 -118.148855 10 37ft 9kts
23-Aug-20 15:51 33.812755 -118.148960 341 37ft 0kts
23-Aug-20 15:52 33.813095 -118.149032 253 37ft 0kts
23-Aug-20 15:53 33.813055 -118.148630 76 37ft 19kts
23-Aug-20 15:54 33.812122 -118.150785 76 38ft 3kts
23-Aug-20 15:55 33.812115 -118.150825 85 38ft 5kts
23-Aug-20 15:56 33.813293 -118.148135 32 36ft 0kts
23-Aug-20 15:57 33.813293 -118.148135 32 36ft 0kts
23-Aug-20 15:58 33.813812 -118.148958 263 37ft 0kts
23-Aug-20 15:59 33.813739 -118.152060 267 40ft 53kts
23-Aug-20 16:00 33.813393 -118.178125 253 653ft 78kts
23-Aug-20 16:01 33.794848 -118.181199 134 1311ft 91kts
23-Aug-20 16:02 33.781587 -118.154817 121 1945ft 94kts
23-Aug-20 16:03 33.763769 -118.130366 146 2024ft 107kts
23-Aug-20 16:04 33.742370 -118.106382 123 1780ft 106kts
23-Aug-20 16:05 33.724330 -118.079318 147 1756ft 97kts
23-Aug-20 16:06 33.700755 -118.061608 152 1844ft 99kts
23-Aug-20 16:07 33.676448 -118.044860 156 1938ft 100kts
23-Aug-20 16:08 33.655223 -118.021528 129 1997ft 104kts
23-Aug-20 16:09 33.637538 -117.992944 126 2035ft 107kts
23-Aug-20 16:10 33.619312 -117.965612 138 2117ft 105kts
23-Aug-20 16:11 33.599988 -117.937337 139 2139ft 111kts
23-Aug-20 16:12 33.579370 -117.908390 121 2252ft 115kts
23-Aug-20 16:13 33.575143 -117.897299 115 2252ft 120kts
23-Aug-20 16:14 33.575143 -117.897299 115 2252ft 120kts
23-Aug-20 16:15 33.575143 -117.897299 115 2252ft 120kts
23-Aug-20 16:16 33.575143 -117.897299 115 2252ft 120kts
23-Aug-20 16:17 33.575143 -117.897299 115 2252ft 120kts
23-Aug-20 16:18 33.575143 -117.897299 115 2252ft 120kts
23-Aug-20 16:19 33.575143 -117.897299 115 2252ft 120kts
23-Aug-20 16:20 33.575143 -117.897299 115 2252ft 120kts
23-Aug-20 16:21 33.575143 -117.897299 115 2252ft 120kts
23-Aug-20 16:22 33.575143 -117.897299 115 2252ft 120kts
23-Aug-20 16:23 33.575143 -117.897299 115 2252ft 120kts
23-Aug-20 16:24 33.575143 -117.897299 115 2252ft 120kts
23-Aug-20 16:25 33.575143 -117.897299 115 2252ft 120kts
23-Aug-20 16:26 33.575143 -117.897299 115 2252ft 120kts
23-Aug-20 16:27 33.575143 -117.897299 115 2252ft 120kts
23-Aug-20 16:28 33.575143 -117.897299 115 2252ft 120kts
23-Aug-20 16:29 33.575143 -117.897299 115 2252ft 120kts
23-Aug-20 16:30 33.575143 -117.897299 115 2252ft 120kts
23-Aug-20 16:31 33.575143 -117.897299 115 2252ft 120kts
23-Aug-20 16:32 33.575143 -117.897299 115 2252ft 120kts
23-Aug-20 16:33 33.575143 -117.897299 115 2252ft 120kts
23-Aug-20 16:34 33.575143 -117.897299 115 2252ft 120kts
23-Aug-20 16:35 33.575143 -117.897299 115 2252ft 120kts
23-Aug-20 16:36 33.575143 -117.897299 115 2252ft 120kts
23-Aug-20 16:37 33.575143 -117.897299 115 2252ft 120kts
23-Aug-20 16:39 33.575143 -117.897299 115 2252ft 120kts
23-Aug-20 16:40 33.575143 -117.897299 115 2252ft 120kts
23-Aug-20 16:41 33.575143 -117.897299 115 2252ft 120kts
23-Aug-20 16:42 33.575143 -117.897299 115 2252ft 120kts
23-Aug-20 16:43 33.575143 -117.897299 115 2252ft 120kts
23-Aug-20 16:44 33.575143 -117.897299 115 2252ft 120kts
23-Aug-20 16:45 33.575143 -117.897299 115 2252ft 120kts
23-Aug-20 16:46 33.575143 -117.897299 115 2252ft 120kts
23-Aug-20 16:47 33.575143 -117.897299 115 2252ft 120kts
23-Aug-20 16:48 33.575143 -117.897299 115 2252ft 120kts
23-Aug-20 16:49 33.575143 -117.897299 115 2252ft 120kts
23-Aug-20 16:50 33.575143 -117.897299 115 2252ft 120kts
23-Aug-20 16:51 33.575143 -117.897299 115 2252ft 120kts
23-Aug-20 16:52 33.575143 -117.897299 115 2252ft 120kts
23-Aug-20 17:07 33.512383 -117.838356 146 840ft 112kts
23-Aug-20 17:08 33.488754 -117.815080 137 748ft 104kts
23-Aug-20 17:09 33.476634 -117.781051 105 1330ft 112kts
23-Aug-20 17:10 33.467068 -117.746068 116 1288ft 114kts
23-Aug-20 17:11 33.448366 -117.717016 138 1373ft 104kts
23-Aug-20 17:12 33.424948 -117.699388 163 1647ft 104kts
23-Aug-20 17:13 33.398083 -117.685238 158 1697ft 106kts
23-Aug-20 17:14 33.371872 -117.669083 148 1722ft 107kts
23-Aug-20 17:15 33.353994 -117.638997 132 1753ft 108kts
23-Aug-20 17:16 33.338947 -117.606188 124 1754ft 110kts
23-Aug-20 17:17 33.322495 -117.574376 131 1773ft 108kts
23-Aug-20 17:18 33.304376 -117.544623 144 1789ft 105kts
23-Aug-20 17:19 33.280486 -117.523625 136 1963ft 109kts
23-Aug-20 17:20 33.259543 -117.495822 144 2131ft 115kts
23-Aug-20 17:21 33.237094 -117.467877 141 2300ft 118kts
23-Aug-20 17:22 33.209196 -117.449615 163 2483ft 111kts
23-Aug-20 17:23 33.178851 -117.434189 160 2263ft 119kts
23-Aug-20 17:24 33.148377 -117.419584 165 1516ft 114kts
23-Aug-20 17:25 33.119680 -117.405234 157 1362ft 112kts
23-Aug-20 17:26 33.092542 -117.388389 154 1270ft 116kts
23-Aug-20 17:27 33.068209 -117.368802 147 1882ft 107kts
23-Aug-20 17:28 33.044031 -117.351747 159 2516ft 102kts
23-Aug-20 17:29 33.016750 -117.340305 162 3055ft 106kts
23-Aug-20 17:30 32.990783 -117.326862 161 3443ft 101kts
23-Aug-20 17:31 32.966020 -117.310538 153 3404ft 102kts
23-Aug-20 17:32 32.942648 -117.293173 153 3416ft 98kts
23-Aug-20 17:33 32.918892 -117.278598 162 3474ft 91kts
23-Aug-20 17:34 32.895013 -117.267063 163 3501ft 91kts
23-Aug-20 17:35 32.871215 -117.254045 159 3515ft 95kts
23-Aug-20 17:36 32.847898 -117.239684 162 3351ft 95kts
23-Aug-20 17:37 32.832714 -117.213142 108 2792ft 103kts
23-Aug-20 17:38 32.822424 -117.181561 116 2237ft 102kts
23-Aug-20 17:39 32.812462 -117.150413 113 1511ft 97kts
23-Aug-20 17:40 32.809243 -117.125809 347 950ft 74kts
23-Aug-20 17:41 32.817854 -117.149187 283 881ft 84kts
23-Aug-20 17:42 32.804786 -117.160008 117 1393ft 113kts
23-Aug-20 17:43 32.793924 -117.128907 101 1525ft 92kts
23-Aug-20 17:44 32.807299 -117.122129 293 1021ft 61kts
23-Aug-20 17:45 32.814298 -117.138686 294 420ft 40kts
23-Aug-20 17:46 32.815185 -117.142365 233 416ft 0kts
23-Aug-20 17:47 32.814284 -117.140673 149 417ft 15kts
23-Aug-20 17:48 32.813695 -117.140582 111 417ft 0kts

Navigation Log

Ident Type
Flight plan parsing failed, navigation log unavailable